sensor_id;sensor_type;location;lat;lon;timestamp;pressure;altitude;pressure_sealevel;temperature;humidity
47753;BME280;2038;51.728;6.674;2022-08-01T00:01:46;100911.13;;;21.54;100.00
47753;BME280;2038;51.728;6.674;2022-08-01T00:04:13;100908.47;;;21.52;100.00
47753;BME280;2038;51.728;6.674;2022-08-01T00:06:39;100917.84;;;21.45;100.00
47753;BME280;2038;51.728;6.674;2022-08-01T00:09:06;100908.44;;;21.51;100.00
47753;BME280;2038;51.728;6.674;2022-08-01T00:11:33;100911.78;;;21.45;100.00
47753;BME280;2038;51.728;6.674;2022-08-01T00:13:59;100914.50;;;21.50;100.00
47753;BME280;2038;51.728;6.674;2022-08-01T00:16:25;100909.44;;;21.56;100.00
47753;BME280;2038;51.728;6.674;2022-08-01T00:18:52;100907.81;;;21.61;100.00
47753;BME280;2038;51.728;6.674;2022-08-01T00:21:19;100914.66;;;21.57;100.00
47753;BME280;2038;51.728;6.674;2022-08-01T00:23:46;100910.19;;;21.52;100.00
47753;BME280;2038;51.728;6.674;2022-08-01T00:26:13;100912.00;;;21.54;100.00
47753;BME280;2038;51.728;6.674;2022-08-01T00:28:39;100916.16;;;21.47;100.00
47753;BME280;2038;51.728;6.674;2022-08-01T00:31:07;100916.91;;;21.43;100.00
47753;BME280;2038;51.728;6.674;2022-08-01T00:33:33;100915.16;;;21.42;100.00
47753;BME280;2038;51.728;6.674;2022-08-01T00:35:59;100915.38;;;21.52;100.00
47753;BME280;2038;51.728;6.674;2022-08-01T00:38:26;100916.09;;;21.44;100.00
47753;BME280;2038;51.728;6.674;2022-08-01T00:40:52;100908.31;;;21.44;100.00
47753;BME280;2038;51.728;6.674;2022-08-01T00:43:18;100914.50;;;21.50;100.00
47753;BME280;2038;51.728;6.674;2022-08-01T00:45:44;100912.97;;;21.59;100.00
47753;BME280;2038;51.728;6.674;2022-08-01T00:48:11;100911.25;;;21.58;100.00
47753;BME280;2038;51.728;6.674;2022-08-01T00:50:38;100914.63;;;21.56;100.00
47753;BME280;2038;51.728;6.674;2022-08-01T00:53:05;100906.94;;;21.60;100.00
47753;BME280;2038;51.728;6.674;2022-08-01T00:55:32;100912.06;;;21.57;100.00
47753;BME280;2038;51.728;6.674;2022-08-01T00:57:59;100915.56;;;21.59;100.00
47753;BME280;2038;51.728;6.674;2022-08-01T01:00:26;100913.56;;;21.47;100.00
47753;BME280;2038;51.728;6.674;2022-08-01T01:02:52;100913.59;;;21.49;100.00
47753;BME280;2038;51.728;6.674;2022-08-01T01:05:19;100918.75;;;21.47;100.00
47753;BME280;2038;51.728;6.674;2022-08-01T01:07:56;100919.03;;;21.60;100.00
47753;BME280;2038;51.728;6.674;2022-08-01T01:10:48;100912.84;;;21.53;100.00
47753;BME280;2038;51.728;6.674;2022-08-01T01:13:43;100915.50;;;21.56;100.00
47753;BME280;2038;51.728;6.674;2022-08-01T01:16:19;100913.84;;;21.58;100.00
47753;BME280;2038;51.728;6.674;2022-08-01T01:18:53;100912.09;;;21.59;100.00
47753;BME280;2038;51.728;6.674;2022-08-01T01:21:26;100910.34;;;21.58;100.00
47753;BME280;2038;51.728;6.674;2022-08-01T01:27:18;100915.56;;;21.59;100.00
47753;BME280;2038;51.728;6.674;2022-08-01T01:29:56;100911.00;;;21.49;100.00
47753;BME280;2038;51.728;6.674;2022-08-01T01:32:36;100907.59;;;21.52;100.00
47753;BME280;2038;51.728;6.674;2022-08-01T01:35:26;100908.44;;;21.51;100.00
47753;BME280;2038;51.728;6.674;2022-08-01T01:38:18;100910.97;;;21.47;100.00
47753;BME280;2038;51.728;6.674;2022-08-01T01:40:49;100908.25;;;21.43;100.00
47753;BME280;2038;51.728;6.674;2022-08-01T01:43:19;100912.53;;;21.41;100.00
47753;BME280;2038;51.728;6.674;2022-08-01T01:45:49;100918.56;;;21.40;100.00
47753;BME280;2038;51.728;6.674;2022-08-01T01:48:21;100911.44;;;21.31;100.00
47753;BME280;2038;51.728;6.674;2022-08-01T01:50:51;100913.16;;;21.31;100.00
47753;BME280;2038;51.728;6.674;2022-08-01T01:53:21;100916.19;;;21.15;100.00
47753;BME280;2038;51.728;6.674;2022-08-01T01:55:51;100913.66;;;21.16;100.00
47753;BME280;2038;51.728;6.674;2022-08-01T01:58:20;100917.97;;;21.16;100.00
47753;BME280;2038;51.728;6.674;2022-08-01T02:00:51;100911.88;;;21.14;100.00
47753;BME280;2038;51.728;6.674;2022-08-01T02:03:20;100915.19;;;21.10;100.00
47753;BME280;2038;51.728;6.674;2022-08-01T02:05:48;100922.91;;;21.08;100.00
47753;BME280;2038;51.728;6.674;2022-08-01T02:08:16;100927.22;;;21.08;100.00
47753;BME280;2038;51.728;6.674;2022-08-01T02:10:45;100926.44;;;21.10;100.00
47753;BME280;2038;51.728;6.674;2022-08-01T02:13:34;100936.91;;;21.13;100.00
47753;BME280;2038;51.728;6.674;2022-08-01T02:16:03;100923.72;;;21.06;100.00
47753;BME280;2038;51.728;6.674;2022-08-01T02:18:32;100928.72;;;20.98;100.00
47753;BME280;2038;51.728;6.674;2022-08-01T02:20:59;100920.25;;;21.05;100.00
47753;BME280;2038;51.728;6.674;2022-08-01T02:23:32;100928.97;;;21.09;100.00
47753;BME280;2038;51.728;6.674;2022-08-01T02:26:03;100929.97;;;21.12;100.00
47753;BME280;2038;51.728;6.674;2022-08-01T02:28:49;100931.84;;;21.18;100.00
47753;BME280;2038;51.728;6.674;2022-08-01T02:31:21;100928.41;;;21.19;100.00
47753;BME280;2038;51.728;6.674;2022-08-01T02:34:00;100918.44;;;21.02;100.00
47753;BME280;2038;51.728;6.674;2022-08-01T02:36:34;100917.50;;;20.99;100.00
47753;BME280;2038;51.728;6.674;2022-08-01T02:39:08;100920.88;;;20.96;100.00
47753;BME280;2038;51.728;6.674;2022-08-01T02:41:42;100925.44;;;21.05;100.00
47753;BME280;2038;51.728;6.674;2022-08-01T02:44:19;100919.31;;;21.03;100.00
47753;BME280;2038;51.728;6.674;2022-08-01T02:46:54;100921.16;;;21.07;100.00
47753;BME280;2038;51.728;6.674;2022-08-01T02:49:27;100920.19;;;21.03;100.00
47753;BME280;2038;51.728;6.674;2022-08-01T02:52:00;100918.50;;;21.04;100.00
47753;BME280;2038;51.728;6.674;2022-08-01T02:54:30;100918.53;;;21.06;100.00
47753;BME280;2038;51.728;6.674;2022-08-01T02:56:58;100918.41;;;21.01;100.00
47753;BME280;2038;51.728;6.674;2022-08-01T02:59:27;100918.34;;;20.98;100.00
47753;BME280;2038;51.728;6.674;2022-08-01T03:01:56;100914.91;;;20.99;100.00
47753;BME280;2038;51.728;6.674;2022-08-01T03:04:26;100915.75;;;20.98;100.00
47753;BME280;2038;51.728;6.674;2022-08-01T03:06:55;100911.53;;;21.01;100.00
47753;BME280;2038;51.728;6.674;2022-08-01T03:09:26;100913.94;;;20.94;100.00
47753;BME280;2038;51.728;6.674;2022-08-01T03:11:57;100919.09;;;20.94;100.00
47753;BME280;2038;51.728;6.674;2022-08-01T03:14:27;100921.78;;;20.98;100.00
47753;BME280;2038;51.728;6.674;2022-08-01T03:16:56;100926.13;;;20.98;100.00
47753;BME280;2038;51.728;6.674;2022-08-01T03:19:26;100933.72;;;20.92;100.00
47753;BME280;2038;51.728;6.674;2022-08-01T03:21:57;100931.97;;;20.91;100.00
47753;BME280;2038;51.728;6.674;2022-08-01T03:24:26;100925.88;;;20.89;100.00
47753;BME280;2038;51.728;6.674;2022-08-01T03:26:55;100925.81;;;20.87;100.00
47753;BME280;2038;51.728;6.674;2022-08-01T03:29:26;100926.91;;;20.95;100.00
47753;BME280;2038;51.728;6.674;2022-08-01T03:31:56;100927.09;;;21.03;100.00
47753;BME280;2038;51.728;6.674;2022-08-01T03:34:24;100929.81;;;21.08;100.00
47753;BME280;2038;51.728;6.674;2022-08-01T03:37:11;100926.19;;;21.01;100.00
47753;BME280;2038;51.728;6.674;2022-08-01T03:39:54;100922.84;;;21.05;100.00
47753;BME280;2038;51.728;6.674;2022-08-01T03:42:32;100928.81;;;21.02;100.00
47753;BME280;2038;51.728;6.674;2022-08-01T03:45:09;100927.84;;;20.97;100.00
47753;BME280;2038;51.728;6.674;2022-08-01T03:47:42;100920.75;;;20.92;100.00
47753;BME280;2038;51.728;6.674;2022-08-01T03:50:11;100923.41;;;20.93;100.00
47753;BME280;2038;51.728;6.674;2022-08-01T03:52:41;100927.72;;;20.93;100.00
47753;BME280;2038;51.728;6.674;2022-08-01T03:55:12;100931.19;;;20.93;100.00
47753;BME280;2038;51.728;6.674;2022-08-01T03:57:43;100922.66;;;20.97;100.00
47753;BME280;2038;51.728;6.674;2022-08-01T04:00:12;100924.38;;;20.98;100.00
47753;BME280;2038;51.728;6.674;2022-08-01T04:02:39;100926.16;;;20.99;100.00
47753;BME280;2038;51.728;6.674;2022-08-01T04:05:06;100928.66;;;20.96;100.00
47753;BME280;2038;51.728;6.674;2022-08-01T04:07:33;100934.59;;;20.92;100.00
47753;BME280;2038;51.728;6.674;2022-08-01T04:10:05;100931.19;;;20.93;100.00
47753;BME280;2038;51.728;6.674;2022-08-01T04:12:33;100931.31;;;20.98;100.00
47753;BME280;2038;51.728;6.674;2022-08-01T04:15:00;100928.72;;;20.98;100.00
47753;BME280;2038;51.728;6.674;2022-08-01T04:17:26;100926.06;;;20.96;100.00
47753;BME280;2038;51.728;6.674;2022-08-01T04:19:52;100929.41;;;20.92;100.00
47753;BME280;2038;51.728;6.674;2022-08-01T04:22:18;100933.66;;;20.89;100.00
47753;BME280;2038;51.728;6.674;2022-08-01T04:24:48;100932.72;;;20.87;100.00
47753;BME280;2038;51.728;6.674;2022-08-01T04:27:23;100948.81;;;20.75;100.00
47753;BME280;2038;51.728;6.674;2022-08-01T04:29:58;100958.34;;;20.76;100.00
47753;BME280;2038;51.728;6.674;2022-08-01T04:32:28;100951.66;;;20.84;100.00
47753;BME280;2038;51.728;6.674;2022-08-01T04:34:59;100962.69;;;20.77;100.00
47753;BME280;2038;51.728;6.674;2022-08-01T04:37:28;100962.66;;;20.76;100.00
47753;BME280;2038;51.728;6.674;2022-08-01T04:39:57;100964.28;;;20.72;100.00
47753;BME280;2038;51.728;6.674;2022-08-01T04:42:25;100966.31;;;20.84;100.00
47753;BME280;2038;51.728;6.674;2022-08-01T04:44:51;100966.28;;;20.82;100.00
47753;BME280;2038;51.728;6.674;2022-08-01T04:47:18;100978.19;;;20.76;100.00
47753;BME280;2038;51.728;6.674;2022-08-01T04:49:45;100971.56;;;20.85;100.00
47753;BME280;2038;51.728;6.674;2022-08-01T04:52:12;100976.75;;;20.87;100.00
47753;BME280;2038;51.728;6.674;2022-08-01T04:54:38;100973.41;;;20.89;100.00
47753;BME280;2038;51.728;6.674;2022-08-01T04:57:06;100972.59;;;20.92;100.00
47753;BME280;2038;51.728;6.674;2022-08-01T04:59:34;100969.31;;;20.97;100.00
47753;BME280;2038;51.728;6.674;2022-08-01T05:02:14;100973.72;;;21.01;100.00
47753;BME280;2038;51.728;6.674;2022-08-01T05:04:45;100982.28;;;20.99;100.00
47753;BME280;2038;51.728;6.674;2022-08-01T05:07:12;100972.78;;;20.99;100.00
47753;BME280;2038;51.728;6.674;2022-08-01T05:09:40;100974.56;;;21.00;100.00
47753;BME280;2038;51.728;6.674;2022-08-01T05:12:08;100984.88;;;20.99;100.00
47753;BME280;2038;51.728;6.674;2022-08-01T05:14:36;100988.22;;;20.95;100.00
47753;BME280;2038;51.728;6.674;2022-08-01T05:17:05;100980.53;;;20.98;100.00
47753;BME280;2038;51.728;6.674;2022-08-01T05:19:33;100974.50;;;20.99;100.00
47753;BME280;2038;51.728;6.674;2022-08-01T05:22:01;100975.38;;;20.99;100.00
47753;BME280;2038;51.728;6.674;2022-08-01T05:24:31;100981.53;;;21.03;100.00
47753;BME280;2038;51.728;6.674;2022-08-01T05:26:59;100980.53;;;20.98;100.00
47753;BME280;2038;51.728;6.674;2022-08-01T05:29:26;100980.78;;;21.07;100.00
47753;BME280;2038;51.728;6.674;2022-08-01T05:31:53;100974.22;;;21.18;100.00
47753;BME280;2038;51.728;6.674;2022-08-01T05:34:19;100980.34;;;21.22;100.00
47753;BME280;2038;51.728;6.674;2022-08-01T05:36:46;100983.91;;;21.25;100.00
47753;BME280;2038;51.728;6.674;2022-08-01T05:39:13;100991.03;;;21.34;100.00
47753;BME280;2038;51.728;6.674;2022-08-01T05:41:40;100992.06;;;21.40;100.00
47753;BME280;2038;51.728;6.674;2022-08-01T05:44:07;100986.94;;;21.43;100.00
47753;BME280;2038;51.728;6.674;2022-08-01T05:46:34;100993.19;;;21.50;100.00
47753;BME280;2038;51.728;6.674;2022-08-01T05:49:02;100996.03;;;21.61;100.00
47753;BME280;2038;51.728;6.674;2022-08-01T05:51:29;100998.63;;;21.61;100.00
47753;BME280;2038;51.728;6.674;2022-08-01T05:53:56;100998.66;;;21.62;100.00
47753;BME280;2038;51.728;6.674;2022-08-01T05:56:23;101001.41;;;21.68;100.00
47753;BME280;2038;51.728;6.674;2022-08-01T05:58:50;100999.53;;;21.63;100.00
47753;BME280;2038;51.728;6.674;2022-08-01T06:01:18;100993.47;;;21.62;100.00
47753;BME280;2038;51.728;6.674;2022-08-01T06:03:45;100996.97;;;21.64;100.00
47753;BME280;2038;51.728;6.674;2022-08-01T06:06:11;100997.69;;;21.59;100.00
47753;BME280;2038;51.728;6.674;2022-08-01T06:08:40;100998.63;;;21.61;100.00
47753;BME280;2038;51.728;6.674;2022-08-01T06:11:07;101002.13;;;21.63;100.00
47753;BME280;2038;51.728;6.674;2022-08-01T06:13:33;101009.00;;;21.61;100.00
47753;BME280;2038;51.728;6.674;2022-08-01T06:15:59;101005.38;;;21.54;100.00
47753;BME280;2038;51.728;6.674;2022-08-01T06:18:25;101003.75;;;21.58;100.00
47753;BME280;2038;51.728;6.674;2022-08-01T06:20:52;101005.69;;;21.66;100.00
47753;BME280;2038;51.728;6.674;2022-08-01T06:23:19;101004.09;;;21.73;100.00
47753;BME280;2038;51.728;6.674;2022-08-01T06:25:46;101010.13;;;21.70;100.00
47753;BME280;2038;51.728;6.674;2022-08-01T06:28:13;101011.84;;;21.70;100.00
47753;BME280;2038;51.728;6.674;2022-08-01T06:30:39;101006.66;;;21.71;100.00
47753;BME280;2038;51.728;6.674;2022-08-01T06:33:05;101014.59;;;21.77;100.00
47753;BME280;2038;51.728;6.674;2022-08-01T06:35:32;101008.38;;;21.71;100.00
47753;BME280;2038;51.728;6.674;2022-08-01T06:37:58;101011.38;;;21.87;100.00
47753;BME280;2038;51.728;6.674;2022-08-01T06:40:25;101008.00;;;21.90;100.00
47753;BME280;2038;51.728;6.674;2022-08-01T06:42:51;101015.69;;;21.87;100.00
47753;BME280;2038;51.728;6.674;2022-08-01T06:45:17;101010.41;;;21.82;100.00
47753;BME280;2038;51.728;6.674;2022-08-01T06:47:45;101017.44;;;21.86;100.00
47753;BME280;2038;51.728;6.674;2022-08-01T06:50:11;101018.38;;;21.90;100.00
47753;BME280;2038;51.728;6.674;2022-08-01T06:52:40;101012.41;;;21.92;100.00
47753;BME280;2038;51.728;6.674;2022-08-01T06:55:07;101014.34;;;22.01;100.00
47753;BME280;2038;51.728;6.674;2022-08-01T06:57:34;101012.91;;;22.14;100.00
47753;BME280;2038;51.728;6.674;2022-08-01T07:00:06;101019.00;;;22.16;100.00
47753;BME280;2038;51.728;6.674;2022-08-01T07:02:38;101020.81;;;22.20;100.00
47753;BME280;2038;51.728;6.674;2022-08-01T07:05:05;101013.31;;;22.32;100.00
47753;BME280;2038;51.728;6.674;2022-08-01T07:07:32;101019.16;;;22.23;100.00
47753;BME280;2038;51.728;6.674;2022-08-01T07:09:58;101024.50;;;22.29;100.00
47753;BME280;2038;51.728;6.674;2022-08-01T07:12:24;101016.28;;;22.11;100.00
47753;BME280;2038;51.728;6.674;2022-08-01T07:14:50;101019.59;;;22.04;100.00
47753;BME280;2038;51.728;6.674;2022-08-01T07:17:16;101022.84;;;21.94;100.00
47753;BME280;2038;51.728;6.674;2022-08-01T07:19:43;101020.03;;;21.88;100.00
47753;BME280;2038;51.728;6.674;2022-08-01T07:22:09;101022.25;;;22.06;100.00
47753;BME280;2038;51.728;6.674;2022-08-01T07:24:35;101015.41;;;22.11;100.00
47753;BME280;2038;51.728;6.674;2022-08-01T07:27:01;101022.25;;;22.07;100.00
47753;BME280;2038;51.728;6.674;2022-08-01T07:29:28;101021.59;;;22.14;100.00
47753;BME280;2038;51.728;6.674;2022-08-01T07:31:56;101029.53;;;22.22;100.00
47753;BME280;2038;51.728;6.674;2022-08-01T07:34:23;101028.09;;;22.34;100.00
47753;BME280;2038;51.728;6.674;2022-08-01T07:36:52;101032.69;;;22.48;100.00
47753;BME280;2038;51.728;6.674;2022-08-01T07:39:18;101032.31;;;22.68;100.00
47753;BME280;2038;51.728;6.674;2022-08-01T07:41:45;101038.59;;;22.78;100.00
47753;BME280;2038;51.728;6.674;2022-08-01T07:44:11;101030.03;;;22.83;100.00
47753;BME280;2038;51.728;6.674;2022-08-01T07:46:37;101034.28;;;22.78;100.00
47753;BME280;2038;51.728;6.674;2022-08-01T07:49:04;101036.81;;;22.77;100.00
47753;BME280;2038;51.728;6.674;2022-08-01T07:51:30;101040.25;;;22.74;100.00
47753;BME280;2038;51.728;6.674;2022-08-01T07:53:56;101033.06;;;22.64;100.00
47753;BME280;2038;51.728;6.674;2022-08-01T07:56:23;101044.22;;;22.59;100.00
47753;BME280;2038;51.728;6.674;2022-08-01T07:58:50;101044.22;;;22.60;100.00
47753;BME280;2038;51.728;6.674;2022-08-01T08:01:16;101049.59;;;22.68;100.00
47753;BME280;2038;51.728;6.674;2022-08-01T08:03:42;101044.28;;;22.63;100.00
47753;BME280;2038;51.728;6.674;2022-08-01T08:06:08;101047.78;;;22.64;100.00
47753;BME280;2038;51.728;6.674;2022-08-01T08:08:35;101052.97;;;22.64;100.00
47753;BME280;2038;51.728;6.674;2022-08-01T08:11:01;101055.47;;;22.59;100.00
47753;BME280;2038;51.728;6.674;2022-08-01T08:13:27;101057.06;;;22.53;100.00
47753;BME280;2038;51.728;6.674;2022-08-01T08:15:54;101064.75;;;22.48;100.00
47753;BME280;2038;51.728;6.674;2022-08-01T08:18:20;101056.91;;;22.45;100.00
47753;BME280;2038;51.728;6.674;2022-08-01T08:20:46;101066.63;;;22.55;100.00
47753;BME280;2038;51.728;6.674;2022-08-01T08:23:13;101063.19;;;22.56;100.00
47753;BME280;2038;51.728;6.674;2022-08-01T08:25:57;101066.91;;;22.67;100.00
47753;BME280;2038;51.728;6.674;2022-08-01T08:28:23;101071.44;;;22.76;100.00
47753;BME280;2038;51.728;6.674;2022-08-01T08:30:50;101087.09;;;22.79;100.00
47753;BME280;2038;51.728;6.674;2022-08-01T08:33:16;101082.66;;;22.73;100.00
47753;BME280;2038;51.728;6.674;2022-08-01T08:35:42;101087.03;;;22.76;100.00
47753;BME280;2038;51.728;6.674;2022-08-01T08:38:08;101085.38;;;22.78;100.00
47753;BME280;2038;51.728;6.674;2022-08-01T08:40:36;101089.84;;;22.85;100.00
47753;BME280;2038;51.728;6.674;2022-08-01T08:43:05;101088.25;;;22.92;100.00
47753;BME280;2038;51.728;6.674;2022-08-01T08:45:32;101089.13;;;22.92;100.00
47753;BME280;2038;51.728;6.674;2022-08-01T08:48:00;101086.56;;;22.95;100.00
47753;BME280;2038;51.728;6.674;2022-08-01T08:50:28;101093.44;;;22.92;100.00
47753;BME280;2038;51.728;6.674;2022-08-01T08:52:55;101096.97;;;22.94;100.00
47753;BME280;2038;51.728;6.674;2022-08-01T08:55:23;101096.97;;;22.94;100.00
47753;BME280;2038;51.728;6.674;2022-08-01T08:57:51;101099.63;;;22.97;100.00
47753;BME280;2038;51.728;6.674;2022-08-01T09:00:18;101099.81;;;23.07;100.00
47753;BME280;2038;51.728;6.674;2022-08-01T09:02:46;101087.06;;;23.18;100.00
47753;BME280;2038;51.728;6.674;2022-08-01T09:05:15;101090.84;;;23.35;100.00
47753;BME280;2038;51.728;6.674;2022-08-01T09:07:42;101097.03;;;23.40;100.00
47753;BME280;2038;51.728;6.674;2022-08-01T09:10:09;101096.31;;;23.46;100.00
47753;BME280;2038;51.728;6.674;2022-08-01T09:12:37;101095.69;;;23.59;100.00
47753;BME280;2038;51.728;6.674;2022-08-01T09:15:03;101087.97;;;23.65;100.00
47753;BME280;2038;51.728;6.674;2022-08-01T09:17:40;101095.88;;;23.69;100.00
47753;BME280;2038;51.728;6.674;2022-08-01T09:20:07;101094.31;;;23.81;100.00
47753;BME280;2038;51.728;6.674;2022-08-01T09:22:48;101102.19;;;23.84;100.00
47753;BME280;2038;51.728;6.674;2022-08-01T09:25:15;101100.41;;;23.81;100.00
47753;BME280;2038;51.728;6.674;2022-08-01T09:27:41;101099.41;;;23.73;100.00
47753;BME280;2038;51.728;6.674;2022-08-01T09:30:18;101109.13;;;23.83;100.00
47753;BME280;2038;51.728;6.674;2022-08-01T09:32:58;101118.81;;;23.92;100.00
47753;BME280;2038;51.728;6.674;2022-08-01T09:35:33;101126.03;;;24.06;100.00
47753;BME280;2038;51.728;6.674;2022-08-01T09:41:00;101123.28;;;24.00;100.00
47753;BME280;2038;51.728;6.674;2022-08-01T09:43:29;101126.06;;;24.09;100.00
47753;BME280;2038;51.728;6.674;2022-08-01T09:45:56;101127.75;;;24.07;100.00
47753;BME280;2038;51.728;6.674;2022-08-01T09:48:23;101135.47;;;24.01;100.00
47753;BME280;2038;51.728;6.674;2022-08-01T09:50:52;101135.63;;;24.12;100.00
47753;BME280;2038;51.728;6.674;2022-08-01T09:53:19;101136.84;;;24.29;100.00
47753;BME280;2038;51.728;6.674;2022-08-01T09:55:46;101144.75;;;24.35;100.00
47753;BME280;2038;51.728;6.674;2022-08-01T09:58:13;101129.81;;;24.25;100.00
47753;BME280;2038;51.728;6.674;2022-08-01T10:00:40;101127.06;;;24.14;100.00
47753;BME280;2038;51.728;6.674;2022-08-01T10:03:21;101129.53;;;24.10;100.00
47753;BME280;2038;51.728;6.674;2022-08-01T10:05:49;101128.63;;;24.08;100.00
47753;BME280;2038;51.728;6.674;2022-08-01T10:08:16;101138.84;;;23.96;100.00
47753;BME280;2038;51.728;6.674;2022-08-01T10:11:06;101135.22;;;23.86;100.00
47753;BME280;2038;51.728;6.674;2022-08-01T10:13:34;101141.78;;;23.67;100.00
47753;BME280;2038;51.728;6.674;2022-08-01T10:16:02;101147.84;;;23.65;100.00
47753;BME280;2038;51.728;6.674;2022-08-01T10:18:34;101145.09;;;23.57;100.00
47753;BME280;2038;51.728;6.674;2022-08-01T10:21:02;101140.69;;;23.53;100.00
47753;BME280;2038;51.728;6.674;2022-08-01T10:23:37;101139.69;;;23.47;100.00
47753;BME280;2038;51.728;6.674;2022-08-01T10:26:05;101145.50;;;23.37;100.00
47753;BME280;2038;51.728;6.674;2022-08-01T10:28:35;101142.09;;;23.39;100.00
47753;BME280;2038;51.728;6.674;2022-08-01T10:31:04;101139.69;;;23.47;100.00
47753;BME280;2038;51.728;6.674;2022-08-01T10:33:31;101140.84;;;23.62;100.00
47753;BME280;2038;51.728;6.674;2022-08-01T10:35:58;101148.91;;;23.74;100.00
47753;BME280;2038;51.728;6.674;2022-08-01T10:38:25;101145.50;;;23.80;100.00
47753;BME280;2038;51.728;6.674;2022-08-01T10:40:55;101149.00;;;23.81;100.00
47753;BME280;2038;51.728;6.674;2022-08-01T10:43:23;101148.97;;;23.79;100.00
47753;BME280;2038;51.728;6.674;2022-08-01T10:45:50;101149.88;;;23.81;100.00
47753;BME280;2038;51.728;6.674;2022-08-01T10:48:21;101146.38;;;23.81;100.00
47753;BME280;2038;51.728;6.674;2022-08-01T10:50:55;101156.13;;;23.92;100.00
47753;BME280;2038;51.728;6.674;2022-08-01T10:53:29;101155.59;;;24.10;100.00
47753;BME280;2038;51.728;6.674;2022-08-01T10:58:42;101147.63;;;24.53;100.00
47753;BME280;2038;51.728;6.674;2022-08-01T11:01:30;101149.41;;;24.56;100.00
47753;BME280;2038;51.728;6.674;2022-08-01T11:04:13;101152.91;;;24.58;98.94
47753;BME280;2038;51.728;6.674;2022-08-01T11:09:43;101152.31;;;24.77;98.82
47753;BME280;2038;51.728;6.674;2022-08-01T11:12:15;101147.16;;;24.80;99.03
47753;BME280;2038;51.728;6.674;2022-08-01T11:17:32;101143.22;;;25.06;96.59
47753;BME280;2038;51.728;6.674;2022-08-01T11:20:06;101146.88;;;25.24;96.47
47753;BME280;2038;51.728;6.674;2022-08-01T11:30:44;101152.03;;;25.17;94.01
47753;BME280;2038;51.728;6.674;2022-08-01T11:33:17;101149.50;;;25.25;94.23
47753;BME280;2038;51.728;6.674;2022-08-01T11:38:36;101156.56;;;25.32;94.61
47753;BME280;2038;51.728;6.674;2022-08-01T11:41:10;101150.66;;;25.48;94.77
47753;BME280;2038;51.728;6.674;2022-08-01T11:44:07;101152.44;;;25.51;92.97
47753;BME280;2038;51.728;6.674;2022-08-01T11:46:57;101151.53;;;25.49;93.06
47753;BME280;2038;51.728;6.674;2022-08-01T11:52:05;101147.97;;;25.39;94.27
47753;BME280;2038;51.728;6.674;2022-08-01T11:54:54;101151.41;;;25.40;94.19
47753;BME280;2038;51.728;6.674;2022-08-01T11:57:31;101153.19;;;25.41;93.32
47753;BME280;2038;51.728;6.674;2022-08-01T12:02:40;101160.38;;;25.60;94.29
47753;BME280;2038;51.728;6.674;2022-08-01T12:05:08;101161.19;;;25.53;92.50
47753;BME280;2038;51.728;6.674;2022-08-01T12:07:38;101167.31;;;25.55;91.00
47753;BME280;2038;51.728;6.674;2022-08-01T12:10:12;101171.63;;;25.53;90.28
47753;BME280;2038;51.728;6.674;2022-08-01T12:12:49;101174.16;;;25.48;90.13
47753;BME280;2038;51.728;6.674;2022-08-01T12:15:19;101165.47;;;25.49;92.04
47753;BME280;2038;51.728;6.674;2022-08-01T12:17:50;101162.97;;;25.57;92.56
47753;BME280;2038;51.728;6.674;2022-08-01T12:20:24;101167.13;;;25.43;91.16
47753;BME280;2038;51.728;6.674;2022-08-01T12:22:58;101162.59;;;25.27;92.24
47753;BME280;2038;51.728;6.674;2022-08-01T12:25:26;101164.22;;;25.20;91.67
47753;BME280;2038;51.728;6.674;2022-08-01T12:27:53;101160.72;;;25.16;91.72
47753;BME280;2038;51.728;6.674;2022-08-01T12:30:21;101165.13;;;25.19;92.28
47753;BME280;2038;51.728;6.674;2022-08-01T12:32:52;101168.53;;;25.15;91.35
47753;BME280;2038;51.728;6.674;2022-08-01T12:35:30;101167.59;;;25.10;92.55
47753;BME280;2038;51.728;6.674;2022-08-01T12:37:58;101168.41;;;25.06;91.73
47753;BME280;2038;51.728;6.674;2022-08-01T12:43:05;101171.78;;;24.97;92.13
47753;BME280;2038;51.728;6.674;2022-08-01T12:45:40;101169.25;;;25.03;93.04
47753;BME280;2038;51.728;6.674;2022-08-01T12:48:09;101160.59;;;25.06;92.07
47753;BME280;2038;51.728;6.674;2022-08-01T12:50:42;101168.53;;;25.16;92.18
47753;BME280;2038;51.728;6.674;2022-08-01T12:53:11;101176.53;;;25.29;93.47
47753;BME280;2038;51.728;6.674;2022-08-01T12:55:52;101178.34;;;25.36;92.37
47753;BME280;2038;51.728;6.674;2022-08-01T12:58:20;101176.69;;;25.42;92.91
47753;BME280;2038;51.728;6.674;2022-08-01T13:00:49;101181.00;;;25.40;91.97
47753;BME280;2038;51.728;6.674;2022-08-01T13:03:20;101174.81;;;25.31;91.70
47753;BME280;2038;51.728;6.674;2022-08-01T13:05:54;101174.66;;;25.19;91.20
47753;BME280;2038;51.728;6.674;2022-08-01T13:08:31;101185.25;;;25.31;91.50
47753;BME280;2038;51.728;6.674;2022-08-01T13:11:04;101181.78;;;25.30;90.45
47753;BME280;2038;51.728;6.674;2022-08-01T13:13:48;101180.81;;;25.22;90.69
47753;BME280;2038;51.728;6.674;2022-08-01T13:16:26;101177.16;;;25.09;90.60
47753;BME280;2038;51.728;6.674;2022-08-01T13:18:54;101178.97;;;25.16;89.60
47753;BME280;2038;51.728;6.674;2022-08-01T13:21:27;101171.16;;;25.16;89.06
47753;BME280;2038;51.728;6.674;2022-08-01T13:24:05;101169.28;;;25.08;88.19
47753;BME280;2038;51.728;6.674;2022-08-01T13:26:44;101177.94;;;25.02;89.17
47753;BME280;2038;51.728;6.674;2022-08-01T13:29:18;101171.00;;;25.04;88.82
47753;BME280;2038;51.728;6.674;2022-08-01T13:31:47;101169.44;;;25.20;89.17
47753;BME280;2038;51.728;6.674;2022-08-01T13:34:13;101175.69;;;25.31;87.90
47753;BME280;2038;51.728;6.674;2022-08-01T13:36:40;101177.50;;;25.35;88.88
47753;BME280;2038;51.728;6.674;2022-08-01T13:39:07;101175.03;;;25.49;87.04
47753;BME280;2038;51.728;6.674;2022-08-01T13:41:52;101165.47;;;25.49;84.32